Time;durP1;ratioP1;P1;durP2;ratioP2;P2;SDS_P1;SDS_P2;PMS_P1;PMS_P2;Temp;Humidity;BMP_temperature;BMP_pressure;BME280_temperature;BME280_humidity;BME280_pressure;Samples;Min_cycle;Max_cycle;Signal;HPM_P1;HPM_P2
2024/01/15 00:00:38;;;;;;;56.13;25.80;;;;;;;;;;5036292;28;20057;-90
2024/01/15 00:03:03;;;;;;;55.10;25.77;;;;;;;;;;5019306;28;20025;-90
2024/01/15 00:05:57;;;;;;;57.10;25.58;;;;;;;;;;5036448;28;20044;-89
2024/01/15 00:08:37;;;;;;;57.15;24.75;;;;;;;;;;5037907;28;20025;-90
2024/01/15 00:11:03;;;;;;;51.83;24.70;;;;;;;;;;5022643;28;20025;-89
2024/01/15 00:13:28;;;;;;;52.03;23.52;;;;;;;;;;5022725;28;20032;-90
2024/01/15 00:15:53;;;;;;;48.53;22.70;;;;;;;;;;5022546;28;20033;-89
2024/01/15 00:18:19;;;;;;;50.53;23.45;;;;;;;;;;5040151;28;20025;-90
2024/01/15 00:20:44;;;;;;;51.42;22.45;;;;;;;;;;5040156;28;20331;-90
2024/01/15 00:23:09;;;;;;;47.08;21.92;;;;;;;;;;5022505;28;20120;-89
2024/01/15 00:25:34;;;;;;;55.15;24.35;;;;;;;;;;5022444;28;20021;-89
2024/01/15 00:28:00;;;;;;;56.90;26.13;;;;;;;;;;5039707;28;20017;-91
2024/01/15 00:30:25;;;;;;;54.03;25.05;;;;;;;;;;5039723;28;20060;-90
2024/01/15 00:32:50;;;;;;;46.35;21.70;;;;;;;;;;5022254;28;20030;-89
2024/01/15 00:35:16;;;;;;;52.03;22.27;;;;;;;;;;5022612;28;20032;-89
2024/01/15 00:37:41;;;;;;;59.88;25.25;;;;;;;;;;5021352;28;20036;-89
2024/01/15 00:40:07;;;;;;;64.85;26.55;;;;;;;;;;5022469;28;20069;-90
2024/01/15 00:42:33;;;;;;;60.00;27.60;;;;;;;;;;5021493;28;20119;-90
2024/01/15 00:44:58;;;;;;;69.00;28.27;;;;;;;;;;5022012;28;20057;-90
2024/01/15 00:47:25;;;;;;;66.80;28.83;;;;;;;;;;5022232;28;20028;-89
2024/01/15 00:49:50;;;;;;;75.20;31.38;;;;;;;;;;5021785;28;20049;-89
2024/01/15 00:52:15;;;;;;;61.78;24.75;;;;;;;;;;5022019;28;20076;-89
2024/01/15 00:54:41;;;;;;;59.85;23.90;;;;;;;;;;5039180;28;20068;-89
2024/01/15 00:57:06;;;;;;;66.47;23.88;;;;;;;;;;5022142;28;20025;-89
2024/01/15 00:59:31;;;;;;;51.63;22.83;;;;;;;;;;5021564;28;20029;-89
2024/01/15 01:01:56;;;;;;;51.75;23.08;;;;;;;;;;5021750;28;20348;-89
2024/01/15 01:04:22;;;;;;;61.67;25.23;;;;;;;;;;5039177;28;20057;-89
2024/01/15 01:06:47;;;;;;;59.42;23.60;;;;;;;;;;5020892;28;20029;-88
2024/01/15 01:09:12;;;;;;;56.20;24.15;;;;;;;;;;5020801;28;20454;-89
2024/01/15 01:11:38;;;;;;;55.25;23.50;;;;;;;;;;5021547;28;20036;-89
2024/01/15 01:14:03;;;;;;;50.42;21.67;;;;;;;;;;5020716;28;20079;-89
2024/01/15 01:16:28;;;;;;;57.60;21.80;;;;;;;;;;5038491;28;20457;-88
2024/01/15 01:18:53;;;;;;;45.53;19.45;;;;;;;;;;5021159;28;20025;-89
2024/01/15 01:21:19;;;;;;;41.78;18.92;;;;;;;;;;5021591;28;20076;-88
2024/01/15 01:23:44;;;;;;;56.42;21.27;;;;;;;;;;5021208;28;20029;-88
2024/01/15 01:26:09;;;;;;;45.05;19.80;;;;;;;;;;5020681;28;20053;-89
2024/01/15 01:28:35;;;;;;;45.55;19.52;;;;;;;;;;5021255;28;20021;-88
2024/01/15 01:31:00;;;;;;;44.78;18.88;;;;;;;;;;5020629;28;20033;-89
2024/01/15 01:33:25;;;;;;;47.97;22.63;;;;;;;;;;5020951;28;20445;-88
2024/01/15 01:35:50;;;;;;;53.85;24.65;;;;;;;;;;5020669;28;20030;-89
2024/01/15 01:38:16;;;;;;;48.90;22.20;;;;;;;;;;5020268;28;20039;-88
2024/01/15 01:40:41;;;;;;;51.85;22.55;;;;;;;;;;5020681;28;20029;-89
2024/01/15 01:43:08;;;;;;;61.42;25.95;;;;;;;;;;5020772;28;20026;-89
2024/01/15 01:45:33;;;;;;;51.97;22.90;;;;;;;;;;5021094;28;20028;-88
2024/01/15 01:48:00;;;;;;;51.22;23.20;;;;;;;;;;5038053;28;20080;-89
2024/01/15 01:50:25;;;;;;;52.85;23.80;;;;;;;;;;5020837;28;20033;-88
2024/01/15 01:52:50;;;;;;;55.83;24.92;;;;;;;;;;5020707;28;20129;-88
2024/01/15 01:55:16;;;;;;;55.65;25.38;;;;;;;;;;5020782;28;20025;-88
2024/01/15 01:57:41;;;;;;;48.85;22.92;;;;;;;;;;5020527;28;20029;-88
2024/01/15 02:00:08;;;;;;;51.75;22.10;;;;;;;;;;5020629;28;20170;-89
2024/01/15 02:02:33;;;;;;;46.20;22.08;;;;;;;;;;5020354;28;20027;-88
2024/01/15 02:04:59;;;;;;;57.40;22.90;;;;;;;;;;5020319;28;20120;-89
2024/01/15 02:07:24;;;;;;;45.42;20.73;;;;;;;;;;5020314;28;20022;-89
2024/01/15 02:09:49;;;;;;;47.53;21.63;;;;;;;;;;5020373;28;20068;-88
2024/01/15 02:12:14;;;;;;;54.08;24.45;;;;;;;;;;5037660;28;20025;-88
2024/01/15 02:14:40;;;;;;;51.60;23.20;;;;;;;;;;5037872;28;20059;-89
2024/01/15 02:17:06;;;;;;;60.78;25.70;;;;;;;;;;5020043;28;20025;-88
2024/01/15 02:19:31;;;;;;;67.93;27.15;;;;;;;;;;5038030;28;20117;-88
2024/01/15 02:21:56;;;;;;;69.28;28.02;;;;;;;;;;5037430;28;20025;-89
2024/01/15 02:24:22;;;;;;;68.90;27.42;;;;;;;;;;5037384;28;20017;-89
2024/01/15 02:26:48;;;;;;;65.53;27.08;;;;;;;;;;5019860;28;20025;-89
2024/01/15 02:29:13;;;;;;;63.67;26.77;;;;;;;;;;5037416;28;20092;-88
2024/01/15 02:31:39;;;;;;;64.28;26.90;;;;;;;;;;5036912;28;20362;-88
2024/01/15 02:34:04;;;;;;;54.75;25.02;;;;;;;;;;5020252;28;20026;-88
2024/01/15 02:36:30;;;;;;;56.78;25.38;;;;;;;;;;5019959;28;20044;-88
2024/01/15 02:38:55;;;;;;;52.85;22.67;;;;;;;;;;5037087;28;20029;-88
2024/01/15 02:41:20;;;;;;;47.10;21.75;;;;;;;;;;5019757;28;20033;-88
2024/01/15 02:43:46;;;;;;;46.45;22.30;;;;;;;;;;5037191;28;20029;-89
2024/01/15 02:46:13;;;;;;;50.45;23.42;;;;;;;;;;5019727;28;20032;-88
2024/01/15 02:48:38;;;;;;;52.63;24.98;;;;;;;;;;5037041;28;20075;-88
2024/01/15 02:51:04;;;;;;;58.17;25.25;;;;;;;;;;5036977;28;20029;-88
2024/01/15 02:53:29;;;;;;;56.38;25.42;;;;;;;;;;5019242;28;20037;-88
2024/01/15 02:55:54;;;;;;;54.35;24.65;;;;;;;;;;5019593;28;20545;-88
2024/01/15 02:58:21;;;;;;;52.22;23.10;;;;;;;;;;5036918;28;20025;-89
2024/01/15 03:00:46;;;;;;;54.63;23.45;;;;;;;;;;5037043;28;20033;-89
2024/01/15 03:03:11;;;;;;;56.67;23.48;;;;;;;;;;5019581;28;20188;-88
2024/01/15 03:05:37;;;;;;;49.78;22.77;;;;;;;;;;5019477;28;20032;-89
2024/01/15 03:08:02;;;;;;;52.22;21.95;;;;;;;;;;5019457;28;20071;-88
2024/01/15 03:10:27;;;;;;;49.60;22.92;;;;;;;;;;5036803;28;20458;-88
2024/01/15 03:12:53;;;;;;;54.78;22.55;;;;;;;;;;5036891;28;20033;-88
2024/01/15 03:15:18;;;;;;;50.72;22.10;;;;;;;;;;5036643;28;20401;-88
2024/01/15 03:17:43;;;;;;;53.88;22.63;;;;;;;;;;5018770;28;20079;-89
2024/01/15 03:20:09;;;;;;;54.45;22.27;;;;;;;;;;5004558;28;20033;-89
2024/01/15 03:22:34;;;;;;;54.55;23.63;;;;;;;;;;5009744;28;20034;-90
2024/01/15 03:25:00;;;;;;;62.90;24.98;;;;;;;;;;5026456;28;20109;-88
2024/01/15 03:27:25;;;;;;;51.58;22.55;;;;;;;;;;4993859;28;20030;-89
2024/01/15 03:29:51;;;;;;;52.40;22.63;;;;;;;;;;5025891;28;20030;-89
2024/01/15 03:32:16;;;;;;;47.25;20.63;;;;;;;;;;5024715;28;20030;-89
2024/01/15 03:34:42;;;;;;;51.83;21.85;;;;;;;;;;5009955;28;20068;-89
2024/01/15 03:37:07;;;;;;;45.95;20.30;;;;;;;;;;5033683;28;20026;-88
2024/01/15 03:39:32;;;;;;;44.55;20.33;;;;;;;;;;5036973;28;20163;-89
2024/01/15 03:41:58;;;;;;;53.45;22.38;;;;;;;;;;5019464;28;20060;-88
2024/01/15 03:44:23;;;;;;;53.08;21.33;;;;;;;;;;5034780;28;20032;-90
2024/01/15 03:46:48;;;;;;;52.58;22.00;;;;;;;;;;5021259;28;20091;-89
2024/01/15 03:49:13;;;;;;;55.15;23.95;;;;;;;;;;5020668;28;20033;-89
2024/01/15 03:51:39;;;;;;;56.25;24.65;;;;;;;;;;5020660;28;20466;-89
2024/01/15 03:54:04;;;;;;;66.55;26.80;;;;;;;;;;5035488;28;20038;-90
2024/01/15 03:56:29;;;;;;;67.15;25.80;;;;;;;;;;5040357;28;20029;-89
2024/01/15 03:58:55;;;;;;;50.65;23.90;;;;;;;;;;5040302;28;20029;-89
2024/01/15 04:01:20;;;;;;;52.80;22.45;;;;;;;;;;5039644;28;20047;-89
2024/01/15 04:03:45;;;;;;;62.28;24.27;;;;;;;;;;5040045;28;20025;-89
2024/01/15 04:06:11;;;;;;;61.40;25.48;;;;;;;;;;5040195;28;20037;-89
2024/01/15 04:08:36;;;;;;;73.43;27.88;;;;;;;;;;5039940;28;20032;-90
2024/01/15 04:11:01;;;;;;;67.22;26.33;;;;;;;;;;5012834;28;20045;-89
2024/01/15 04:13:27;;;;;;;66.05;28.00;;;;;;;;;;5020480;28;20334;-85
2024/01/15 04:15:52;;;;;;;68.50;26.20;;;;;;;;;;5019644;28;20462;-85
2024/01/15 04:18:18;;;;;;;69.68;27.48;;;;;;;;;;5019618;28;20022;-85
2024/01/15 04:20:43;;;;;;;77.97;27.15;;;;;;;;;;5018252;28;20385;-85
2024/01/15 04:23:08;;;;;;;58.67;25.77;;;;;;;;;;5039359;28;20028;-85
2024/01/15 04:25:34;;;;;;;70.63;24.52;;;;;;;;;;5021697;28;20024;-85
2024/01/15 04:27:59;;;;;;;57.20;23.77;;;;;;;;;;5038555;28;20061;-85
2024/01/15 04:30:24;;;;;;;63.35;25.27;;;;;;;;;;5038945;28;20061;-85
2024/01/15 04:32:49;;;;;;;65.85;26.20;;;;;;;;;;5039213;28;20067;-85
2024/01/15 04:35:15;;;;;;;58.67;24.00;;;;;;;;;;5021657;28;20051;-85
2024/01/15 04:37:40;;;;;;;61.00;24.02;;;;;;;;;;5028473;28;20029;-85
2024/01/15 04:40:06;;;;;;;65.47;25.60;;;;;;;;;;5021749;28;20087;-85
2024/01/15 04:42:31;;;;;;;59.38;22.80;;;;;;;;;;5021480;28;20053;-84
2024/01/15 04:44:56;;;;;;;63.17;25.48;;;;;;;;;;5021646;28;20026;-84
2024/01/15 04:47:22;;;;;;;53.13;21.75;;;;;;;;;;5020200;28;20431;-85
2024/01/15 04:49:48;;;;;;;47.90;20.55;;;;;;;;;;5038469;28;20032;-85
2024/01/15 04:52:14;;;;;;;52.05;21.67;;;;;;;;;;5021369;28;20064;-85
2024/01/15 04:54:39;;;;;;;52.67;21.95;;;;;;;;;;5038465;28;20442;-85
2024/01/15 04:57:04;;;;;;;51.55;21.13;;;;;;;;;;5038641;28;20030;-85
2024/01/15 04:59:30;;;;;;;46.72;20.08;;;;;;;;;;5021037;28;20030;-85
2024/01/15 05:01:55;;;;;;;46.75;18.73;;;;;;;;;;5038638;28;20025;-85
2024/01/15 05:04:20;;;;;;;44.00;19.60;;;;;;;;;;5007555;28;20057;-85
2024/01/15 05:06:46;;;;;;;50.55;20.08;;;;;;;;;;5001420;28;20021;-85
2024/01/15 05:09:14;;;;;;;46.13;19.58;;;;;;;;;;5018379;28;20061;-84
2024/01/15 05:11:39;;;;;;;48.33;21.30;;;;;;;;;;5001369;28;20025;-84
2024/01/15 05:14:05;;;;;;;48.40;21.83;;;;;;;;;;5001327;28;20026;-85
2024/01/15 05:16:30;;;;;;;49.28;23.23;;;;;;;;;;5018642;28;20061;-86
2024/01/15 05:18:55;;;;;;;61.05;22.95;;;;;;;;;;5018357;28;20025;-86
2024/01/15 05:21:20;;;;;;;51.88;21.52;;;;;;;;;;5008236;28;20033;-86
2024/01/15 05:23:46;;;;;;;58.47;21.77;;;;;;;;;;5000944;28;20339;-86
2024/01/15 05:26:11;;;;;;;49.97;21.25;;;;;;;;;;5000957;28;20058;-86
2024/01/15 05:28:37;;;;;;;58.35;23.23;;;;;;;;;;5001255;28;20026;-86
2024/01/15 05:31:03;;;;;;;47.53;20.80;;;;;;;;;;5018250;28;20338;-85
2024/01/15 05:33:28;;;;;;;53.90;23.90;;;;;;;;;;5018286;28;20025;-86
2024/01/15 05:35:53;;;;;;;62.85;22.15;;;;;;;;;;5000931;28;20077;-85
2024/01/15 05:38:19;;;;;;;57.55;22.80;;;;;;;;;;5003011;28;20129;-86
2024/01/15 05:40:44;;;;;;;56.78;22.25;;;;;;;;;;5037375;28;20033;-85
2024/01/15 05:43:09;;;;;;;51.88;23.35;;;;;;;;;;5020426;28;20068;-85
2024/01/15 05:45:38;;;;;;;48.00;22.27;;;;;;;;;;5035126;28;20056;-85
2024/01/15 05:48:03;;;;;;;57.67;21.70;;;;;;;;;;5008808;28;20026;-85
2024/01/15 05:50:29;;;;;;;48.50;22.00;;;;;;;;;;5025842;28;20039;-85
2024/01/15 05:52:54;;;;;;;52.55;22.80;;;;;;;;;;5004220;28;20125;-85
2024/01/15 05:55:19;;;;;;;59.88;23.42;;;;;;;;;;5018101;28;20053;-86
2024/01/15 05:57:45;;;;;;;58.50;24.33;;;;;;;;;;5017656;28;20029;-86
2024/01/15 06:00:10;;;;;;;67.10;24.90;;;;;;;;;;5037436;28;20029;-85
2024/01/15 06:02:39;;;;;;;58.75;23.90;;;;;;;;;;5018878;28;20523;-86
2024/01/15 06:05:05;;;;;;;57.22;22.35;;;;;;;;;;5022977;28;20017;-86
2024/01/15 06:07:30;;;;;;;64.18;22.95;;;;;;;;;;5022876;28;20088;-87
2024/01/15 06:09:56;;;;;;;60.90;23.02;;;;;;;;;;5020124;28;20021;-87
2024/01/15 06:12:22;;;;;;;58.03;22.88;;;;;;;;;;5020053;28;20074;-87
2024/01/15 06:14:47;;;;;;;69.38;23.65;;;;;;;;;;5014444;28;20117;-87
2024/01/15 06:17:12;;;;;;;59.05;23.13;;;;;;;;;;5000003;28;20026;-86
2024/01/15 06:19:38;;;;;;;51.70;20.77;;;;;;;;;;5000182;28;20037;-85
2024/01/15 06:22:03;;;;;;;58.30;25.60;;;;;;;;;;5001126;28;20030;-85
2024/01/15 06:24:28;;;;;;;65.72;26.95;;;;;;;;;;5002542;28;20072;-86
2024/01/15 06:26:54;;;;;;;61.83;23.35;;;;;;;;;;5020380;28;20053;-87
2024/01/15 06:29:19;;;;;;;55.50;23.25;;;;;;;;;;5024172;28;20072;-86
2024/01/15 06:31:44;;;;;;;65.50;24.27;;;;;;;;;;5032530;28;20033;-86
2024/01/15 06:34:10;;;;;;;59.53;23.63;;;;;;;;;;5045398;28;20029;-84
2024/01/15 06:36:35;;;;;;;61.47;24.60;;;;;;;;;;5019689;28;20025;-84
2024/01/15 06:39:00;;;;;;;63.45;25.48;;;;;;;;;;4999295;28;20029;-84
2024/01/15 06:41:25;;;;;;;59.00;23.65;;;;;;;;;;5016953;28;20390;-84
2024/01/15 06:43:51;;;;;;;57.67;24.00;;;;;;;;;;5016171;28;20036;-84
2024/01/15 06:46:20;;;;;;;61.90;24.23;;;;;;;;;;5016125;28;20022;-84
2024/01/15 06:48:46;;;;;;;71.00;26.90;;;;;;;;;;5003714;28;20025;-84
2024/01/15 06:51:11;;;;;;;54.50;23.30;;;;;;;;;;5019242;28;20029;-84
2024/01/15 06:53:36;;;;;;;57.25;23.40;;;;;;;;;;5018647;28;20076;-84
2024/01/15 06:56:02;;;;;;;54.30;21.27;;;;;;;;;;5036754;28;20342;-84
2024/01/15 06:58:27;;;;;;;52.15;22.27;;;;;;;;;;5019018;28;20027;-84
2024/01/15 07:00:53;;;;;;;54.83;22.47;;;;;;;;;;5009307;28;20097;-85
2024/01/15 07:03:19;;;;;;;50.80;21.48;;;;;;;;;;5002620;28;20259;-84
2024/01/15 07:05:44;;;;;;;44.90;21.02;;;;;;;;;;5029828;28;20108;-84
2024/01/15 07:08:09;;;;;;;51.00;19.13;;;;;;;;;;4999463;28;20022;-85
2024/01/15 07:10:35;;;;;;;56.33;20.02;;;;;;;;;;4999518;28;20399;-84
2024/01/15 07:13:00;;;;;;;47.25;20.92;;;;;;;;;;5016822;28;20022;-85
2024/01/15 07:15:25;;;;;;;44.33;19.10;;;;;;;;;;5016712;28;20025;-85
2024/01/15 07:17:51;;;;;;;49.40;20.05;;;;;;;;;;5001283;28;20107;-85
2024/01/15 07:20:17;;;;;;;48.38;20.65;;;;;;;;;;5020692;28;20022;-85
2024/01/15 07:22:42;;;;;;;49.38;19.92;;;;;;;;;;5020678;28;20399;-85
2024/01/15 07:25:08;;;;;;;56.95;22.25;;;;;;;;;;5020621;28;20099;-84
2024/01/15 07:27:33;;;;;;;57.40;22.70;;;;;;;;;;5059276;28;20021;-84
2024/01/15 07:29:59;;;;;;;62.00;25.35;;;;;;;;;;5060588;28;20053;-85
2024/01/15 07:32:24;;;;;;;54.70;21.90;;;;;;;;;;5060273;28;20025;-84
2024/01/15 07:34:50;;;;;;;51.53;22.65;;;;;;;;;;5060402;28;20036;-84
2024/01/15 07:37:15;;;;;;;50.22;22.75;;;;;;;;;;5030260;28;20037;-84
2024/01/15 07:39:41;;;;;;;60.65;24.10;;;;;;;;;;5010913;28;20044;-84
2024/01/15 07:42:07;;;;;;;57.35;24.02;;;;;;;;;;5022204;28;20025;-84
2024/01/15 07:44:32;;;;;;;58.10;23.83;;;;;;;;;;5042439;28;20028;-84
2024/01/15 07:46:57;;;;;;;68.10;25.08;;;;;;;;;;5059593;28;20070;-84
2024/01/15 07:49:23;;;;;;;62.03;25.17;;;;;;;;;;5059988;28;20430;-84
2024/01/15 07:51:48;;;;;;;56.75;25.67;;;;;;;;;;5059923;28;20021;-84
2024/01/15 07:54:14;;;;;;;59.60;23.65;;;;;;;;;;5042273;28;20028;-84
2024/01/15 07:56:55;;;;;;;47.42;21.27;;;;;;;;;;5059741;28;20020;-84
2024/01/15 07:59:20;;;;;;;52.65;22.83;;;;;;;;;;5041909;28;20443;-84
2024/01/15 08:01:47;;;;;;;48.08;21.65;;;;;;;;;;5042214;28;20064;-84
2024/01/15 08:04:12;;;;;;;51.13;21.85;;;;;;;;;;5037351;28;20018;-84
2024/01/15 08:06:38;;;;;;;40.67;19.83;;;;;;;;;;5022171;28;20127;-86
2024/01/15 08:09:03;;;;;;;48.35;21.90;;;;;;;;;;5039622;28;20498;-86
2024/01/15 08:11:29;;;;;;;46.97;21.58;;;;;;;;;;5039510;28;20477;-86
2024/01/15 08:13:54;;;;;;;50.97;22.52;;;;;;;;;;5028003;28;20053;-86
2024/01/15 08:16:20;;;;;;;51.33;23.08;;;;;;;;;;5001903;28;20034;-86
2024/01/15 08:18:45;;;;;;;47.05;21.38;;;;;;;;;;5019670;28;20171;-86
2024/01/15 08:21:10;;;;;;;54.53;21.55;;;;;;;;;;5019663;28;20125;-86
2024/01/15 08:23:36;;;;;;;49.60;20.70;;;;;;;;;;5019932;28;20053;-86
2024/01/15 08:26:01;;;;;;;53.40;23.33;;;;;;;;;;5019474;28;20021;-87
2024/01/15 08:28:26;;;;;;;52.13;21.92;;;;;;;;;;5001458;28;20022;-86
2024/01/15 08:30:51;;;;;;;47.45;20.80;;;;;;;;;;5019471;28;20032;-87
2024/01/15 08:33:17;;;;;;;46.35;20.42;;;;;;;;;;5019072;28;20112;-87
2024/01/15 08:35:45;;;;;;;49.17;20.13;;;;;;;;;;5019331;28;20025;-86
2024/01/15 08:38:10;;;;;;;58.90;21.77;;;;;;;;;;5019227;28;20325;-86
2024/01/15 08:40:35;;;;;;;41.70;20.38;;;;;;;;;;5019193;28;20048;-86
2024/01/15 08:43:01;;;;;;;42.60;20.35;;;;;;;;;;5019340;28;20060;-86
2024/01/15 08:45:29;;;;;;;48.03;21.33;;;;;;;;;;5019221;28;20323;-87
2024/01/15 08:47:55;;;;;;;44.65;19.02;;;;;;;;;;5019994;28;20029;-87
2024/01/15 08:50:20;;;;;;;42.88;19.58;;;;;;;;;;5038949;28;20026;-86
2024/01/15 08:52:46;;;;;;;39.10;18.02;;;;;;;;;;5038854;28;20049;-86
2024/01/15 08:55:13;;;;;;;40.08;17.83;;;;;;;;;;5038902;28;20022;-87
2024/01/15 08:57:38;;;;;;;34.85;17.13;;;;;;;;;;5038712;28;20018;-87
2024/01/15 09:00:04;;;;;;;40.83;18.73;;;;;;;;;;5030805;28;20095;-86
2024/01/15 09:02:29;;;;;;;40.03;18.65;;;;;;;;;;5001509;28;20026;-86
2024/01/15 09:04:54;;;;;;;36.53;17.17;;;;;;;;;;5018910;28;20022;-87
2024/01/15 09:07:20;;;;;;;44.53;18.45;;;;;;;;;;5018642;28;20029;-87
2024/01/15 09:09:45;;;;;;;40.63;18.50;;;;;;;;;;5000956;28;20021;-86
2024/01/15 09:12:14;;;;;;;36.33;16.83;;;;;;;;;;5001729;28;20029;-87
2024/01/15 09:14:41;;;;;;;45.45;17.50;;;;;;;;;;5018689;28;20022;-86
2024/01/15 09:17:07;;;;;;;45.40;18.33;;;;;;;;;;5001023;28;20048;-86
2024/01/15 09:19:32;;;;;;;35.75;18.70;;;;;;;;;;5018812;28;20026;-86
2024/01/15 09:21:58;;;;;;;43.60;19.27;;;;;;;;;;5018037;28;20080;-86
2024/01/15 09:24:23;;;;;;;39.90;16.55;;;;;;;;;;5001191;28;20030;-87
2024/01/15 09:26:49;;;;;;;39.85;17.60;;;;;;;;;;5000928;28;20040;-87
2024/01/15 09:29:15;;;;;;;38.53;17.05;;;;;;;;;;5000669;28;20022;-87
2024/01/15 09:31:41;;;;;;;38.50;16.33;;;;;;;;;;5001043;28;20021;-87
2024/01/15 09:34:06;;;;;;;34.70;16.50;;;;;;;;;;5001084;28;20354;-87
2024/01/15 09:36:32;;;;;;;36.63;17.50;;;;;;;;;;5017584;28;20083;-87
2024/01/15 09:38:57;;;;;;;39.97;17.02;;;;;;;;;;5037639;28;20030;-86
2024/01/15 09:41:23;;;;;;;35.08;16.95;;;;;;;;;;5013932;28;20076;-86
2024/01/15 09:43:48;;;;;;;32.67;14.73;;;;;;;;;;5001015;28;20478;-86
2024/01/15 09:46:14;;;;;;;28.30;13.38;;;;;;;;;;5000740;28;20022;-86
2024/01/15 09:48:40;;;;;;;26.05;13.63;;;;;;;;;;5017659;28;20080;-86
2024/01/15 09:51:07;;;;;;;34.63;14.00;;;;;;;;;;5017927;28;20026;-87
2024/01/15 09:53:33;;;;;;;25.75;12.85;;;;;;;;;;5008112;28;20026;-86
2024/01/15 09:55:58;;;;;;;28.45;13.88;;;;;;;;;;5037373;28;20458;-86
2024/01/15 09:58:24;;;;;;;25.98;13.10;;;;;;;;;;5037704;28;20025;-87
2024/01/15 10:00:50;;;;;;;27.92;15.00;;;;;;;;;;5037368;28;20128;-87
2024/01/15 10:03:17;;;;;;;75.13;38.03;;;;;;;;;;5037982;28;20048;-87
2024/01/15 10:05:44;;;;;;;167.40;67.47;;;;;;;;;;5019541;28;20041;-86
2024/01/15 10:08:10;;;;;;;266.02;110.30;;;;;;;;;;5019853;28;20028;-86
2024/01/15 10:10:36;;;;;;;192.32;74.43;;;;;;;;;;5037407;28;20419;-87
2024/01/15 10:13:01;;;;;;;438.42;188.30;;;;;;;;;;5019963;28;20043;-87
2024/01/15 10:15:33;;;;;;;164.70;64.32;;;;;;;;;;5037271;28;20025;-87
2024/01/15 10:17:59;;;;;;;428.17;177.70;;;;;;;;;;5019809;28;20029;-88
2024/01/15 10:20:24;;;;;;;116.45;50.00;;;;;;;;;;5019645;28;20109;-87
2024/01/15 10:22:50;;;;;;;67.82;31.70;;;;;;;;;;5036915;28;20072;-87
2024/01/15 10:25:16;;;;;;;97.15;42.30;;;;;;;;;;5010676;28;20037;-87
2024/01/15 10:27:41;;;;;;;66.40;32.78;;;;;;;;;;5024988;28;20071;-87
2024/01/15 10:30:07;;;;;;;74.18;37.08;;;;;;;;;;4991215;28;20030;-87
2024/01/15 10:32:33;;;;;;;92.40;41.88;;;;;;;;;;5036514;28;20418;-87
2024/01/15 10:34:58;;;;;;;93.93;55.08;;;;;;;;;;5036962;28;20032;-88
2024/01/15 10:37:27;;;;;;;36.67;21.50;;;;;;;;;;5038306;28;20079;-87
2024/01/15 10:39:52;;;;;;;40.08;23.23;;;;;;;;;;5017176;28;20076;-87
2024/01/15 10:42:18;;;;;;;29.25;17.40;;;;;;;;;;4999326;28;20453;-87
2024/01/15 10:44:44;;;;;;;25.05;11.00;;;;;;;;;;5002719;28;20022;-88
2024/01/15 10:47:10;;;;;;;36.72;12.30;;;;;;;;;;5020562;28;20036;-87
2024/01/15 10:49:35;;;;;;;30.98;12.90;;;;;;;;;;5036766;28;20021;-86
2024/01/15 10:52:02;;;;;;;21.15;11.85;;;;;;;;;;5030199;28;20034;-87
2024/01/15 10:54:27;;;;;;;21.98;10.50;;;;;;;;;;5016954;28;20030;-88
2024/01/15 10:56:53;;;;;;;25.75;10.63;;;;;;;;;;4999162;28;20030;-88
2024/01/15 10:59:20;;;;;;;19.08;10.07;;;;;;;;;;4999488;28;20030;-85
2024/01/15 11:01:46;;;;;;;26.15;15.23;;;;;;;;;;5002643;28;20033;-88
2024/01/15 11:04:13;;;;;;;28.27;14.73;;;;;;;;;;5010986;28;20056;-88
2024/01/15 11:06:42;;;;;;;20.95;11.45;;;;;;;;;;5016874;28;20427;-87
2024/01/15 11:09:08;;;;;;;26.48;12.88;;;;;;;;;;4999629;28;20032;-87
2024/01/15 11:11:35;;;;;;;43.08;18.85;;;;;;;;;;5019908;28;20025;-87
2024/01/15 11:14:00;;;;;;;23.65;11.10;;;;;;;;;;4999448;28;20038;-87
2024/01/15 11:16:45;;;;;;;31.67;13.48;;;;;;;;;;5016859;28;20030;-87
2024/01/15 11:19:12;;;;;;;61.97;27.02;;;;;;;;;;5016686;28;20089;-87
2024/01/15 11:21:42;;;;;;;28.08;12.60;;;;;;;;;;5013059;28;20067;-87
2024/01/15 11:24:11;;;;;;;42.88;20.60;;;;;;;;;;4999379;28;20022;-87
2024/01/15 11:26:46;;;;;;;59.88;23.67;;;;;;;;;;5016843;28;20022;-87
2024/01/15 11:29:26;;;;;;;29.15;14.10;;;;;;;;;;5007562;28;20219;-87
2024/01/15 11:31:55;;;;;;;52.25;23.52;;;;;;;;;;5035564;28;20426;-88
2024/01/15 11:34:20;;;;;;;32.78;12.85;;;;;;;;;;5018993;28;20030;-87
2024/01/15 11:36:46;;;;;;;41.97;18.02;;;;;;;;;;5018832;28;20025;-87
2024/01/15 11:39:26;;;;;;;24.47;11.07;;;;;;;;;;5017587;28;20029;-87
2024/01/15 11:41:52;;;;;;;19.27;10.02;;;;;;;;;;5036544;28;20369;-88
2024/01/15 11:44:17;;;;;;;22.02;10.43;;;;;;;;;;5036255;28;20435;-88
2024/01/15 11:46:50;;;;;;;19.48;9.00;;;;;;;;;;5016089;28;20014;-87
2024/01/15 11:49:20;;;;;;;24.83;10.88;;;;;;;;;;5033493;28;20035;-87
2024/01/15 11:51:46;;;;;;;19.45;8.90;;;;;;;;;;5037971;28;20035;-88
2024/01/15 11:54:12;;;;;;;21.60;9.95;;;;;;;;;;5038644;28;20131;-87
2024/01/15 11:56:37;;;;;;;34.67;16.90;;;;;;;;;;5043769;28;20108;-87
2024/01/15 11:59:02;;;;;;;17.15;8.15;;;;;;;;;;5018619;28;20481;-88
2024/01/15 12:01:28;;;;;;;22.50;8.40;;;;;;;;;;5018541;28;20029;-87
2024/01/15 12:03:54;;;;;;;19.73;9.43;;;;;;;;;;5019058;28;20116;-87
2024/01/15 12:06:19;;;;;;;14.07;6.93;;;;;;;;;;5022571;28;20025;-87
2024/01/15 12:08:45;;;;;;;16.80;6.57;;;;;;;;;;5039486;28;20423;-87
2024/01/15 12:11:13;;;;;;;16.20;8.90;;;;;;;;;;5022821;28;20076;-87
2024/01/15 12:13:39;;;;;;;14.75;6.30;;;;;;;;;;5019364;28;20033;-88
2024/01/15 12:16:09;;;;;;;21.27;9.32;;;;;;;;;;5039591;28;20427;-86
2024/01/15 12:18:35;;;;;;;16.60;9.13;;;;;;;;;;5022278;28;20124;-87
2024/01/15 12:21:00;;;;;;;18.58;7.03;;;;;;;;;;5021567;28;20161;-87
2024/01/15 12:23:27;;;;;;;14.93;6.72;;;;;;;;;;5004587;28;20449;-87
2024/01/15 12:25:52;;;;;;;15.73;8.18;;;;;;;;;;5009363;28;20064;-87
2024/01/15 12:28:19;;;;;;;12.18;6.47;;;;;;;;;;5039241;28;20076;-87
2024/01/15 12:30:48;;;;;;;14.43;6.65;;;;;;;;;;5004232;28;20040;-87
2024/01/15 12:33:13;;;;;;;14.63;6.57;;;;;;;;;;5033917;28;20037;-87
2024/01/15 12:35:39;;;;;;;12.57;6.35;;;;;;;;;;5038937;28;20029;-87
2024/01/15 12:38:04;;;;;;;11.10;5.82;;;;;;;;;;5017717;28;20084;-88
2024/01/15 12:40:31;;;;;;;14.30;6.57;;;;;;;;;;5002199;28;20053;-88
2024/01/15 12:42:57;;;;;;;12.30;6.00;;;;;;;;;;5002407;28;20025;-88
2024/01/15 12:45:22;;;;;;;10.80;5.75;;;;;;;;;;5018860;28;20117;-89
2024/01/15 12:47:47;;;;;;;16.92;6.47;;;;;;;;;;5017955;28;20026;-88
2024/01/15 12:50:13;;;;;;;13.73;5.40;;;;;;;;;;5002275;28;20030;-88
2024/01/15 12:52:41;;;;;;;15.35;6.10;;;;;;;;;;5001990;28;20038;-87
2024/01/15 12:55:07;;;;;;;16.40;6.80;;;;;;;;;;5019291;28;20135;-88
2024/01/15 12:57:34;;;;;;;13.43;6.10;;;;;;;;;;5002012;28;20553;-88
2024/01/15 12:59:59;;;;;;;17.23;6.97;;;;;;;;;;5001977;28;20045;-86
2024/01/15 13:02:24;;;;;;;15.18;6.53;;;;;;;;;;5018158;28;20034;-86
2024/01/15 13:04:50;;;;;;;13.50;7.32;;;;;;;;;;5039180;28;20024;-86
2024/01/15 13:07:15;;;;;;;10.82;5.80;;;;;;;;;;5041005;28;20498;-87
2024/01/15 13:09:40;;;;;;;25.67;10.52;;;;;;;;;;5034072;28;20036;-88
2024/01/15 13:12:06;;;;;;;15.85;7.13;;;;;;;;;;5007823;28;20033;-88
2024/01/15 13:14:31;;;;;;;17.60;8.40;;;;;;;;;;5009993;28;20033;-89
2024/01/15 13:16:58;;;;;;;20.73;10.32;;;;;;;;;;5028954;28;20034;-88
2024/01/15 13:19:23;;;;;;;16.35;7.28;;;;;;;;;;5038474;28;20418;-88
2024/01/15 13:21:50;;;;;;;17.42;6.38;;;;;;;;;;5050005;28;20066;-88
2024/01/15 13:24:15;;;;;;;12.73;6.88;;;;;;;;;;5020869;28;20075;-87
2024/01/15 13:26:40;;;;;;;12.63;6.00;;;;;;;;;;5013815;28;20435;-87
2024/01/15 13:29:06;;;;;;;11.63;6.03;;;;;;;;;;5006105;28;20057;-88
2024/01/15 13:31:31;;;;;;;10.75;5.75;;;;;;;;;;5034081;28;20109;-88
2024/01/15 13:33:57;;;;;;;10.70;5.65;;;;;;;;;;5016919;28;20029;-88
2024/01/15 13:36:23;;;;;;;13.05;5.80;;;;;;;;;;5033941;28;20033;-88
2024/01/15 13:38:49;;;;;;;11.90;6.07;;;;;;;;;;5039313;28;20026;-92
2024/01/15 13:41:15;;;;;;;16.25;6.03;;;;;;;;;;5017196;28;20338;-87
2024/01/15 13:43:40;;;;;;;15.15;6.65;;;;;;;;;;5004939;28;20021;-87
2024/01/15 13:46:05;;;;;;;19.33;7.85;;;;;;;;;;5006553;28;20025;-87
2024/01/15 13:48:31;;;;;;;14.18;6.70;;;;;;;;;;5006308;28;20033;-88
2024/01/15 13:50:57;;;;;;;14.85;6.88;;;;;;;;;;5037299;28;20450;-88
2024/01/15 13:53:22;;;;;;;17.02;7.78;;;;;;;;;;5030177;28;20030;-87
2024/01/15 13:55:47;;;;;;;15.77;7.70;;;;;;;;;;5037373;28;20102;-88
2024/01/15 13:58:13;;;;;;;16.27;6.13;;;;;;;;;;5022574;28;20041;-88
2024/01/15 14:00:39;;;;;;;12.10;5.80;;;;;;;;;;5020233;28;20065;-88
2024/01/15 14:03:04;;;;;;;17.15;8.00;;;;;;;;;;5003775;28;20068;-88
2024/01/15 14:05:30;;;;;;;14.50;7.22;;;;;;;;;;5026719;28;20447;-89
2024/01/15 14:07:55;;;;;;;15.00;7.15;;;;;;;;;;5000066;28;20436;-88
2024/01/15 14:10:20;;;;;;;12.98;6.63;;;;;;;;;;5000749;28;20026;-88